createdAt,value
2023-01-09T00:02:06.867Z,87.69
2023-01-09T00:04:37.307Z,87.85
2023-01-09T00:07:06.045Z,87.75
2023-01-09T00:09:34.770Z,87.59
2023-01-09T00:12:03.738Z,87.66
2023-01-09T00:14:32.426Z,87.65
2023-01-09T00:17:05.388Z,87.49
2023-01-09T00:19:34.145Z,87.61
2023-01-09T00:22:04.251Z,87.59
2023-01-09T00:24:33.023Z,87.58
2023-01-09T00:27:01.666Z,87.54
2023-01-09T00:29:30.473Z,87.32
2023-01-09T00:31:59.178Z,87.29
2023-01-09T00:34:28.016Z,87.38
2023-01-09T00:36:56.846Z,87.35
2023-01-09T00:39:27.000Z,87.39
2023-01-09T00:41:58.672Z,87.07
2023-01-09T00:44:34.881Z,86.93
2023-01-09T00:47:11.033Z,86.91
2023-01-09T00:49:39.946Z,86.96
2023-01-09T00:52:12.177Z,86.93
2023-01-09T00:54:44.907Z,86.74
2023-01-09T00:57:15.823Z,86.79
2023-01-09T00:59:45.459Z,86.83
2023-01-09T01:02:14.320Z,86.52
2023-01-09T01:05:00.193Z,86.61
2023-01-09T01:07:45.253Z,86.38
2023-01-09T01:10:20.522Z,86.34
2023-01-09T01:12:50.221Z,86.28
2023-01-09T01:15:20.659Z,86.27
2023-01-09T01:17:49.822Z,86.17
2023-01-09T01:20:20.966Z,86.39
2023-01-09T01:22:49.854Z,86.73
2023-01-09T01:25:20.417Z,86.94
2023-01-09T01:27:51.946Z,87.02
2023-01-09T01:30:21.170Z,86.94
2023-01-09T01:32:49.921Z,87.10
2023-01-09T01:35:18.683Z,87.12
2023-01-09T01:37:49.761Z,87.04
2023-01-09T01:40:21.472Z,87.47
2023-01-09T01:42:53.014Z,87.29
2023-01-09T01:45:23.889Z,87.72
2023-01-09T01:48:01.096Z,89.00
2023-01-09T01:50:36.711Z,88.70
2023-01-09T01:53:15.272Z,88.29
2023-01-09T01:55:52.797Z,88.11
2023-01-09T01:58:22.182Z,88.18
2023-01-09T02:00:51.030Z,88.72
2023-01-09T02:03:24.544Z,88.22
2023-01-09T02:05:53.415Z,88.29
2023-01-09T02:08:23.619Z,89.21
2023-01-09T02:10:56.001Z,88.76
2023-01-09T02:13:26.217Z,89.55
2023-01-09T02:16:19.479Z,89.59
2023-01-09T02:18:55.500Z,89.32
2023-01-09T02:21:39.220Z,88.95
2023-01-09T02:24:43.290Z,89.08
2023-01-09T02:27:54.296Z,89.67
2023-01-09T02:30:47.832Z,89.33
2023-01-09T02:33:37.013Z,89.52
2023-01-09T02:36:23.786Z,89.80
2023-01-09T02:39:21.957Z,89.96
2023-01-09T02:41:59.705Z,89.89
2023-01-09T02:44:31.533Z,90.62
2023-01-09T02:47:07.291Z,90.05
2023-01-09T02:49:39.730Z,90.09
2023-01-09T02:52:32.151Z,90.34
2023-01-09T02:55:12.102Z,90.36
2023-01-09T02:57:59.494Z,90.44
2023-01-09T03:00:42.224Z,90.94
2023-01-09T03:03:27.623Z,90.78
2023-01-09T03:06:07.575Z,91.49
2023-01-09T03:08:44.606Z,91.42
2023-01-09T03:11:13.668Z,91.73
2023-01-09T03:13:51.101Z,92.33
2023-01-09T03:16:26.927Z,92.79
2023-01-09T03:19:00.679Z,92.93
2023-01-09T03:21:30.158Z,93.41
2023-01-09T03:24:02.522Z,94.30
2023-01-09T03:26:32.331Z,94.61
2023-01-09T03:29:01.367Z,95.52
2023-01-09T03:31:30.355Z,95.09
2023-01-09T03:34:00.503Z,95.74
2023-01-09T03:36:29.346Z,96.23
2023-01-09T03:38:58.074Z,96.59
2023-01-09T03:41:26.818Z,96.55
2023-01-09T03:43:55.535Z,97.45
2023-01-09T03:46:24.227Z,97.71
2023-01-09T03:48:52.900Z,97.67
2023-01-09T03:51:24.024Z,98.54
2023-01-09T03:53:52.743Z,98.51
2023-01-09T03:56:21.425Z,98.47
2023-01-09T03:58:50.597Z,98.75
2023-01-09T04:01:19.381Z,98.49
2023-01-09T04:03:48.187Z,98.59
2023-01-09T04:06:16.981Z,98.57
2023-01-09T04:08:47.050Z,98.34
2023-01-09T04:14:05.978Z,98.24
2023-01-09T04:16:33.323Z,98.66
2023-01-09T04:19:01.149Z,98.80
2023-01-09T04:21:28.507Z,98.77
2023-01-09T04:23:56.034Z,98.66
2023-01-09T04:26:23.675Z,98.69
2023-01-09T04:28:51.344Z,98.86
2023-01-09T04:44:25.596Z,98.86
2023-01-09T04:46:55.903Z,98.55
2023-01-09T04:49:25.160Z,98.13
2023-01-09T04:51:54.735Z,98.42
2023-01-09T04:54:24.228Z,98.07
2023-01-09T04:56:52.972Z,97.84
2023-01-09T04:59:25.355Z,98.21
2023-01-09T05:02:05.669Z,98.14
2023-01-09T05:04:34.818Z,98.02
2023-01-09T05:07:03.701Z,97.68
2023-01-09T05:09:33.522Z,98.09
2023-01-09T05:12:02.290Z,97.91
2023-01-09T05:14:32.493Z,98.01
2023-01-09T05:17:08.447Z,98.16
2023-01-09T05:19:37.101Z,98.81
2023-01-09T05:22:07.001Z,98.28
2023-01-09T05:24:39.585Z,98.25
2023-01-09T05:27:31.533Z,98.08
2023-01-09T05:30:05.298Z,97.96
2023-01-09T05:32:36.511Z,98.01
2023-01-09T05:35:06.329Z,98.31
2023-01-09T05:37:35.313Z,98.07
2023-01-09T05:40:06.119Z,98.05
2023-01-09T05:42:45.263Z,97.91
2023-01-09T05:45:21.387Z,97.78
2023-01-09T05:47:52.526Z,97.79
2023-01-09T05:50:21.291Z,97.89
2023-01-09T05:52:52.380Z,97.42
2023-01-09T05:55:21.406Z,97.59
2023-01-09T05:57:50.194Z,97.70
2023-01-09T06:00:22.007Z,97.62
2023-01-09T06:02:50.831Z,97.71
2023-01-09T06:05:19.550Z,97.76
2023-01-09T06:07:48.347Z,97.58
2023-01-09T06:10:18.378Z,97.37
2023-01-09T06:12:53.358Z,97.47
2023-01-09T06:15:23.817Z,97.55
2023-01-09T06:17:52.589Z,97.77
2023-01-09T06:20:21.546Z,97.88
2023-01-09T06:22:53.262Z,97.72
2023-01-09T06:25:22.022Z,97.87
2023-01-09T06:27:52.209Z,97.86
2023-01-09T06:30:22.784Z,97.56
2023-01-09T06:32:52.108Z,97.86
2023-01-09T06:35:22.896Z,97.69
2023-01-09T06:37:51.761Z,97.66
2023-01-09T06:40:21.361Z,97.55
2023-01-09T06:42:50.756Z,97.61
2023-01-09T06:45:19.886Z,97.39
2023-01-09T06:47:50.832Z,97.38
2023-01-09T06:50:20.020Z,97.19
2023-01-09T06:52:48.745Z,97.03
2023-01-09T06:55:17.889Z,96.85
2023-01-09T06:57:46.635Z,97.41
2023-01-09T07:00:16.406Z,97.31
2023-01-09T07:02:45.129Z,96.71
2023-01-09T07:08:07.344Z,96.41
2023-01-09T07:10:35.139Z,96.34
2023-01-09T07:13:02.618Z,95.85
2023-01-09T07:15:30.104Z,96.05
2023-01-09T07:17:57.405Z,96.04
2023-01-09T07:20:24.777Z,95.53
2023-01-09T07:22:53.289Z,95.31
2023-01-09T07:28:47.527Z,95.19
2023-01-09T07:31:16.710Z,95.14
2023-01-09T07:33:45.696Z,95.44
2023-01-09T07:36:14.603Z,95.43
2023-01-09T07:38:43.427Z,95.30
2023-01-09T07:41:12.172Z,95.17
2023-01-09T07:43:41.448Z,95.22
2023-01-09T07:46:11.644Z,95.46
2023-01-09T07:48:40.364Z,95.65
2023-01-09T07:51:10.459Z,95.93
2023-01-09T07:53:41.455Z,95.70
2023-01-09T07:56:10.238Z,96.23
2023-01-09T07:58:41.567Z,95.96
2023-01-09T08:01:14.413Z,95.68
2023-01-09T08:03:43.606Z,95.72
2023-01-09T08:06:12.347Z,95.91
2023-01-09T08:08:41.026Z,96.16
2023-01-09T08:11:09.852Z,95.98
2023-01-09T08:13:39.217Z,96.41
2023-01-09T08:16:10.296Z,97.00
2023-01-09T08:18:38.973Z,96.63
2023-01-09T08:21:07.929Z,97.32
2023-01-09T08:23:36.676Z,97.02
2023-01-09T08:26:05.687Z,97.25
2023-01-09T08:28:34.625Z,98.13
2023-01-09T08:31:03.502Z,97.57
2023-01-09T08:33:33.693Z,97.90
2023-01-09T08:36:02.462Z,97.41
2023-01-09T08:38:31.178Z,97.74
2023-01-09T08:41:20.165Z,97.64
2023-01-09T08:44:06.265Z,97.77
2023-01-09T08:46:54.856Z,97.77
2023-01-09T08:49:25.021Z,97.30
2023-01-09T08:51:53.640Z,97.46
2023-01-09T08:54:22.312Z,97.62
2023-01-09T08:56:51.067Z,97.61
2023-01-09T08:59:19.772Z,97.59
2023-01-09T09:01:48.498Z,97.71
2023-01-09T09:04:17.442Z,97.50
2023-01-09T09:06:47.559Z,97.71
2023-01-09T09:09:16.489Z,97.67
2023-01-09T09:11:45.160Z,97.96
2023-01-09T09:14:31.299Z,98.29
2023-01-09T09:17:00.011Z,98.05
2023-01-09T09:19:28.686Z,97.95
2023-01-09T09:21:59.572Z,98.37
2023-01-09T09:24:28.437Z,98.78
2023-01-09T09:26:57.081Z,98.65
2023-01-09T09:29:25.806Z,98.47
2023-01-09T09:31:54.487Z,98.71
2023-01-09T09:34:23.448Z,99.00
2023-01-09T09:36:52.268Z,98.99
2023-01-09T09:39:25.819Z,99.23
2023-01-09T09:42:41.067Z,99.16
2023-01-09T09:45:32.059Z,99.24
2023-01-09T09:48:17.540Z,99.40
2023-01-09T09:51:34.914Z,100.00
2023-01-09T09:54:13.824Z,99.56
2023-01-09T09:56:52.631Z,100.00
2023-01-09T09:59:26.908Z,99.49
2023-01-09T10:02:01.640Z,98.67
2023-01-09T10:04:35.261Z,99.35
2023-01-09T10:07:09.949Z,99.75
2023-01-09T10:09:50.538Z,98.63
2023-01-09T10:12:33.687Z,98.94
2023-01-09T10:15:16.798Z,98.18
2023-01-09T10:18:13.251Z,97.83
2023-01-09T10:20:57.731Z,97.81
2023-01-09T10:24:01.598Z,96.22
2023-01-09T10:26:41.037Z,96.08
2023-01-09T10:29:53.287Z,95.36
2023-01-09T10:32:47.204Z,95.23
2023-01-09T10:35:47.914Z,94.51
2023-01-09T10:38:26.220Z,94.74
2023-01-09T10:41:04.296Z,96.41
2023-01-09T10:43:44.926Z,97.57
2023-01-09T10:46:26.395Z,97.25
2023-01-09T10:49:02.338Z,98.71
2023-01-09T10:51:40.706Z,99.06
2023-01-09T10:54:18.587Z,98.99
2023-01-09T10:56:56.015Z,100.00
2023-01-09T10:59:26.329Z,100.00
2023-01-09T11:01:56.701Z,99.26
2023-01-09T11:04:30.883Z,99.06
2023-01-09T11:07:30.677Z,99.01
2023-01-09T11:10:02.586Z,97.86
2023-01-09T11:12:33.869Z,97.81
2023-01-09T11:15:31.663Z,97.42
2023-01-09T11:18:25.748Z,96.19
2023-01-09T11:20:55.217Z,95.76
2023-01-09T11:23:34.548Z,95.12
2023-01-09T11:26:04.708Z,94.50
2023-01-09T11:28:33.567Z,94.36
2023-01-09T11:31:03.978Z,93.34
2023-01-09T11:33:42.929Z,93.22
2023-01-09T11:36:16.787Z,90.68
2023-01-09T11:38:52.275Z,90.89
2023-01-09T11:41:25.908Z,90.19
2023-01-09T11:43:58.476Z,88.79
2023-01-09T11:46:39.698Z,86.44
2023-01-09T11:49:24.229Z,88.01
2023-01-09T11:52:19.679Z,86.02
2023-01-09T11:54:56.587Z,85.75
2023-01-09T11:57:27.214Z,84.80
2023-01-09T12:00:02.552Z,84.56
2023-01-09T12:03:06.437Z,84.74
2023-01-09T12:05:48.008Z,84.66
2023-01-09T12:08:39.508Z,84.22
2023-01-09T12:11:27.065Z,83.57
2023-01-09T12:14:41.584Z,84.55
2023-01-09T12:17:45.748Z,84.18
2023-01-09T12:20:52.889Z,84.27
2023-01-09T12:23:39.221Z,83.93
2023-01-09T12:26:19.177Z,84.30
2023-01-09T12:29:17.548Z,83.95
2023-01-09T12:32:21.535Z,83.93
2023-01-09T12:35:03.198Z,84.35
2023-01-09T12:38:24.106Z,83.40
2023-01-09T12:41:30.033Z,83.48
2023-01-09T12:44:34.248Z,83.69
2023-01-09T12:47:26.315Z,83.35
2023-01-09T12:50:06.790Z,83.52
2023-01-09T12:52:42.024Z,83.81
2023-01-09T12:55:21.889Z,83.36
2023-01-09T12:57:53.279Z,83.76
2023-01-09T13:00:28.080Z,82.56
2023-01-09T13:03:12.537Z,83.08
2023-01-09T13:05:48.472Z,83.50
2023-01-09T13:08:25.661Z,83.21
2023-01-09T13:11:18.938Z,83.22
2023-01-09T13:13:57.024Z,83.20
2023-01-09T13:16:33.609Z,83.52
2023-01-09T13:19:12.420Z,84.18
2023-01-09T13:21:42.637Z,83.75
2023-01-09T13:24:20.451Z,82.22
2023-01-09T13:26:57.557Z,82.53
2023-01-09T13:29:32.877Z,82.45
2023-01-09T13:32:40.968Z,81.29
2023-01-09T13:35:16.062Z,81.05
2023-01-09T13:37:52.191Z,80.38
2023-01-09T13:40:30.558Z,81.13
2023-01-09T13:43:06.447Z,79.84
2023-01-09T13:45:39.846Z,79.37
2023-01-09T13:48:42.508Z,79.64
2023-01-09T13:52:03.767Z,80.60
2023-01-09T13:55:26.725Z,81.23
2023-01-09T13:59:02.745Z,81.89
2023-01-09T14:01:47.570Z,80.48
2023-01-09T14:04:44.724Z,81.55
2023-01-09T14:07:34.494Z,81.77
2023-01-09T14:10:09.208Z,81.39
2023-01-09T14:12:43.295Z,82.26
2023-01-09T14:15:30.836Z,82.90
2023-01-09T14:18:07.196Z,83.04
2023-01-09T14:20:41.249Z,83.00
2023-01-09T14:23:42.259Z,83.03
2023-01-09T14:26:21.016Z,82.98
2023-01-09T14:29:45.950Z,82.09
2023-01-09T14:32:58.924Z,82.29
2023-01-09T14:35:41.936Z,82.05
2023-01-09T14:38:31.218Z,82.58
2023-01-09T14:41:19.133Z,83.25
2023-01-09T14:43:59.557Z,83.02
2023-01-09T14:46:36.124Z,83.61
2023-01-09T14:49:35.249Z,83.67
2023-01-09T14:52:22.406Z,83.09
2023-01-09T14:55:00.917Z,83.34
2023-01-09T14:57:36.844Z,83.18
2023-01-09T15:00:20.992Z,83.89
2023-01-09T15:03:05.655Z,83.84
2023-01-09T15:06:02.832Z,83.86
2023-01-09T15:08:40.602Z,83.19
2023-01-09T15:11:38.445Z,83.41
2023-01-09T15:14:10.432Z,83.35
2023-01-09T15:16:40.952Z,83.68
2023-01-09T15:19:10.791Z,83.77
2023-01-09T15:21:57.405Z,84.40
2023-01-09T15:24:30.767Z,84.15
2023-01-09T15:27:03.130Z,84.00
2023-01-09T15:29:32.829Z,84.31
2023-01-09T15:32:09.663Z,83.77
2023-01-09T15:34:39.273Z,83.30
2023-01-09T15:37:28.493Z,83.80
2023-01-09T15:39:59.671Z,83.41
2023-01-09T15:42:51.102Z,83.31
2023-01-09T15:45:28.370Z,82.92
2023-01-09T15:48:17.356Z,82.70
2023-01-09T15:50:48.823Z,82.51
2023-01-09T15:53:22.269Z,82.77
2023-01-09T15:56:16.380Z,82.43
2023-01-09T15:58:52.181Z,82.44
2023-01-09T16:01:31.567Z,82.88
2023-01-09T16:04:10.046Z,83.21
2023-01-09T16:06:47.521Z,83.00
2023-01-09T16:09:25.172Z,82.90
2023-01-09T16:12:01.519Z,82.43
2023-01-09T16:14:36.318Z,82.63
2023-01-09T16:17:16.919Z,82.63
2023-01-09T16:19:52.735Z,82.71
2023-01-09T16:22:24.746Z,82.64
2023-01-09T16:24:57.557Z,83.39
2023-01-09T16:27:32.149Z,83.95
2023-01-09T16:30:04.003Z,83.41
2023-01-09T16:32:38.053Z,83.15
2023-01-09T16:35:16.098Z,82.83
2023-01-09T16:37:44.890Z,82.97
2023-01-09T16:41:23.805Z,83.04
2023-01-09T16:43:52.513Z,83.07
2023-01-09T16:46:22.765Z,82.11
2023-01-09T16:48:53.460Z,83.87
2023-01-09T16:51:49.385Z,83.26
2023-01-09T16:54:20.093Z,83.10
2023-01-09T16:56:55.478Z,83.16
2023-01-09T16:59:29.245Z,83.50
2023-01-09T17:01:59.107Z,83.17
2023-01-09T17:04:31.841Z,83.06
2023-01-09T17:07:00.819Z,83.04
2023-01-09T17:09:30.915Z,82.70
2023-01-09T17:12:03.097Z,82.99
2023-01-09T17:14:32.887Z,83.24
2023-01-09T17:17:13.665Z,82.99
2023-01-09T17:22:56.054Z,82.39
2023-01-09T17:25:42.669Z,82.46
2023-01-09T17:28:36.063Z,83.15
2023-01-09T17:31:09.397Z,83.78
2023-01-09T17:33:40.157Z,83.56
2023-01-09T17:36:23.741Z,83.55
2023-01-09T17:38:55.094Z,83.54
2023-01-09T17:41:25.625Z,82.76
2023-01-09T17:43:57.035Z,82.67
2023-01-09T17:46:34.081Z,81.89
2023-01-09T17:49:04.176Z,82.82
2023-01-09T17:51:33.730Z,82.46
2023-01-09T17:54:02.611Z,82.45
2023-01-09T17:56:35.792Z,82.31
2023-01-09T17:59:07.422Z,82.60
2023-01-09T18:01:36.415Z,82.94
2023-01-09T18:04:05.368Z,83.30
2023-01-09T18:06:36.581Z,82.69
2023-01-09T18:09:06.767Z,82.94
2023-01-09T18:11:36.318Z,83.04
2023-01-09T18:14:06.530Z,82.88
2023-01-09T18:16:36.292Z,82.86
2023-01-09T18:19:05.664Z,82.86
2023-01-09T18:21:34.587Z,83.70
2023-01-09T18:24:03.806Z,83.47
2023-01-09T18:26:32.680Z,83.68
2023-01-09T18:29:02.677Z,84.28
2023-01-09T18:31:33.505Z,84.01
2023-01-09T18:34:05.492Z,83.71
2023-01-09T18:36:34.905Z,84.11
2023-01-09T18:39:09.392Z,84.02
2023-01-09T18:41:40.206Z,84.20
2023-01-09T18:44:10.154Z,83.99
2023-01-09T18:46:43.633Z,84.90
2023-01-09T18:50:23.401Z,85.05
2023-01-09T18:52:55.256Z,85.10
2023-01-09T18:55:24.251Z,86.57
2023-01-09T18:57:53.765Z,85.52
2023-01-09T19:00:22.964Z,84.88
2023-01-09T19:02:59.056Z,84.50
2023-01-09T19:08:11.076Z,85.22
2023-01-09T19:10:40.905Z,84.94
2023-01-09T19:13:09.776Z,85.35
2023-01-09T19:15:38.482Z,85.40
2023-01-09T19:18:08.303Z,85.32
2023-01-09T19:20:40.106Z,85.71
2023-01-09T19:23:10.531Z,85.29
2023-01-09T19:25:39.662Z,85.07
2023-01-09T19:28:09.447Z,85.17
2023-01-09T19:30:41.251Z,85.05
2023-01-09T19:33:12.330Z,84.74
2023-01-09T19:35:42.333Z,84.45
2023-01-09T19:38:12.898Z,84.52
2023-01-09T19:40:41.631Z,84.69
2023-01-09T19:43:10.559Z,84.35
2023-01-09T19:45:41.188Z,84.93
2023-01-09T19:48:12.450Z,84.48
2023-01-09T19:50:41.295Z,84.50
2023-01-09T19:53:11.634Z,84.94
2023-01-09T19:55:40.479Z,85.05
2023-01-09T19:58:09.560Z,85.28
2023-01-09T20:00:39.435Z,86.00
2023-01-09T20:03:08.498Z,86.46
2023-01-09T20:05:38.406Z,87.05
2023-01-09T20:08:08.615Z,86.55
2023-01-09T20:10:40.758Z,86.45
2023-01-09T20:13:11.873Z,86.71
2023-01-09T20:15:42.790Z,86.60
2023-01-09T20:18:19.491Z,86.75
2023-01-09T20:20:51.205Z,86.53
2023-01-09T20:23:21.104Z,86.29
2023-01-09T20:25:52.053Z,86.62
2023-01-09T20:28:21.341Z,87.09
2023-01-09T20:30:52.740Z,86.40
2023-01-09T20:33:22.874Z,86.93
2023-01-09T20:35:51.721Z,86.75
2023-01-09T20:38:20.411Z,86.90
2023-01-09T20:40:50.541Z,86.93
2023-01-09T20:43:19.301Z,87.00
2023-01-09T20:45:48.246Z,87.08
2023-01-09T20:48:17.249Z,87.12
2023-01-09T20:50:45.926Z,87.14
2023-01-09T20:53:14.668Z,87.01
2023-01-09T20:55:43.278Z,87.93
2023-01-09T20:58:13.432Z,88.09
2023-01-09T21:00:42.290Z,87.87
2023-01-09T21:03:15.419Z,88.82
2023-01-09T21:05:44.701Z,88.82
2023-01-09T21:08:13.345Z,89.06
2023-01-09T21:10:41.990Z,88.84
2023-01-09T21:13:12.170Z,88.90
2023-01-09T21:15:40.983Z,88.84
2023-01-09T21:18:09.809Z,88.82
2023-01-09T21:20:38.427Z,88.51
2023-01-09T21:23:09.409Z,88.89
2023-01-09T21:25:40.894Z,88.98
2023-01-09T21:28:16.131Z,88.94
2023-01-09T21:30:49.474Z,88.66
2023-01-09T21:33:21.088Z,88.23
2023-01-09T21:35:54.996Z,88.68
2023-01-09T21:38:24.199Z,88.11
2023-01-09T21:40:53.649Z,87.78
2023-01-09T21:43:46.335Z,87.65
2023-01-09T21:46:33.671Z,87.50
2023-01-09T21:49:04.825Z,87.88
2023-01-09T21:51:38.877Z,87.22
2023-01-09T21:54:07.659Z,87.25
2023-01-09T21:56:36.641Z,87.41
2023-01-09T21:59:08.419Z,87.45
2023-01-09T22:01:37.258Z,87.08
2023-01-09T22:04:06.337Z,86.99
2023-01-09T22:06:36.963Z,86.96
2023-01-09T22:09:05.753Z,87.39
2023-01-09T22:11:34.561Z,87.49
2023-01-09T22:14:03.333Z,87.30
2023-01-09T22:16:33.435Z,87.12
2023-01-09T22:19:02.215Z,87.40
2023-01-09T22:21:30.915Z,87.23
2023-01-09T22:24:01.598Z,87.33
2023-01-09T22:26:31.051Z,86.52
2023-01-09T22:28:59.894Z,86.68
2023-01-09T22:31:29.723Z,87.31
2023-01-09T22:34:01.474Z,87.25
2023-01-09T22:36:32.163Z,87.00
2023-01-09T22:39:01.827Z,86.85
2023-01-09T22:41:31.464Z,87.42
2023-01-09T22:44:00.325Z,87.09
2023-01-09T22:46:29.007Z,87.40
2023-01-09T22:48:59.047Z,87.04
2023-01-09T22:51:27.767Z,87.07
2023-01-09T22:53:56.607Z,87.08
2023-01-09T22:56:25.408Z,86.88
2023-01-09T22:58:58.414Z,86.47
2023-01-09T23:01:27.683Z,86.61
2023-01-09T23:03:56.457Z,86.42
2023-01-09T23:06:26.922Z,86.89
2023-01-09T23:08:55.699Z,87.11
2023-01-09T23:11:45.657Z,87.67
2023-01-09T23:14:14.792Z,88.20
2023-01-09T23:16:43.537Z,87.84
2023-01-09T23:19:16.177Z,88.02
2023-01-09T23:21:47.387Z,87.91
2023-01-09T23:24:18.914Z,87.23
2023-01-09T23:26:47.858Z,87.23
2023-01-09T23:29:16.856Z,87.09
2023-01-09T23:31:46.029Z,87.00
2023-01-09T23:34:17.849Z,86.85
2023-01-09T23:36:48.747Z,86.46
2023-01-09T23:39:17.898Z,86.40
2023-01-09T23:42:03.953Z,86.19
2023-01-09T23:44:33.161Z,86.13
2023-01-09T23:47:01.882Z,86.09
2023-01-09T23:49:30.602Z,85.79
2023-01-09T23:52:05.064Z,85.90
2023-01-09T23:54:33.803Z,85.98
2023-01-09T23:57:02.806Z,85.76
2023-01-09T23:59:31.519Z,86.10
